Weather History for KSMS - February, 2014

Change the Weather History Date:

Tuesday, February 25, 2014

  Actual Average Record
Temperature  
Mean Temperature 60 °F -  
Max Temperature 75 °F 64 °F 75 °F (2014)
Min Temperature 44 °F 38 °F 32 °F (2015)
Degree Days  
Heating Degree Days 6    
Growing Degree Days 10 (Base 50)    
Moisture  
Dew Point 49 °F    
Average Humidity 74    
Maximum Humidity 100    
Minimum Humidity 24    
Precipitation  
Precipitation 0.00 in - - ()
Sea Level Pressure  
Sea Level Pressure 29.99 in    
Wind  
Wind Speed 3 mph (West)    
Max Wind Speed 17 mph    
Max Gust Speed 26 mph    
Visibility 10 miles    
Events      
Averages and records for this station are not official NWS values.
T = Trace of Precipitation, MM = Missing Value Source: NWS Daily Summary

Daily Weather History Graph

Daily Weather History Graph

Search for Another Location

Airport or City:

Trip Planner

Search our weather history database for the weather conditions in past years. The results will help you decide how hot, cold, wet, or windy it might be!

Date:

Astronomy

Feb. 25, 2014 Rise Set
Actual Time 6:54 AM EST 6:14 PM EST
Civil Twilight 6:29 AM EST 6:39 PM EST
Nautical Twilight 6:00 AM EST 7:08 PM EST
Astronomical Twilight 5:31 AM EST 7:37 PM EST
Moon 3:40 AM EST (2/25) 2:25 PM EST (2/25)
Length of Visible Light 12h 09m
Length of Day
11h 19m
Waning Crescent, 18% of the Moon is Illuminated
Feb 25
Waning Crescent
Mar 1
New
Mar 8
First Quarter
Mar 16
Full
Mar 23
Last Quarter

Hourly Weather History & Observations

Time (EST) Temp. Dew Point Humidity Pressure Visibility Wind Dir Wind Speed Gust Speed Precip Events Conditions
12:15 AM 48.2 °F 48.2 °F 100% 30.08 in 10.0 mi Calm Calm - N/A   Clear
12:35 AM 50.0 °F 48.2 °F 94% 30.09 in 10.0 mi Calm Calm - N/A   Clear
12:55 AM 50.0 °F 48.2 °F 94% 30.08 in 10.0 mi Calm Calm - N/A   Clear
1:15 AM 50.0 °F 48.2 °F 94% 30.08 in 10.0 mi Calm Calm - N/A   Clear
1:35 AM 48.2 °F 48.2 °F 100% 30.07 in 10.0 mi Calm Calm - N/A   Clear
1:55 AM 48.2 °F 48.2 °F 100% 30.07 in 10.0 mi Calm Calm - N/A   Clear
2:15 AM 48.2 °F 48.2 °F 100% 30.06 in 10.0 mi Calm Calm - N/A   Clear
2:35 AM 48.2 °F 48.2 °F 100% 30.06 in 10.0 mi Calm Calm - N/A   Clear
2:55 AM 48.2 °F 48.2 °F 100% 30.06 in 10.0 mi Calm Calm - N/A   Clear
3:15 AM 48.2 °F 48.2 °F 100% 30.05 in 10.0 mi Calm Calm - N/A   Clear
3:35 AM 46.4 °F 46.4 °F 100% 30.05 in 10.0 mi Calm Calm - N/A   Clear
3:55 AM 46.4 °F 46.4 °F 100% 30.05 in 10.0 mi Calm Calm - N/A   Clear
4:15 AM 46.4 °F 46.4 °F 100% 30.05 in 8.0 mi Calm Calm - N/A   Clear
4:35 AM 46.4 °F 46.4 °F 100% 30.06 in 10.0 mi Calm Calm - N/A   Clear
4:55 AM 46.4 °F 46.4 °F 100% 30.05 in 10.0 mi Calm Calm - N/A   Clear
5:15 AM 44.6 °F 44.6 °F 100% 30.05 in 8.0 mi Calm Calm - N/A   Clear
5:35 AM 46.4 °F 46.4 °F 100% 30.05 in 9.0 mi Calm Calm - N/A   Clear
5:55 AM 44.6 °F 44.6 °F 100% 30.04 in 10.0 mi Calm Calm - N/A   Clear
6:15 AM 44.6 °F 44.6 °F 100% 30.05 in 9.0 mi Calm Calm - N/A   Clear
6:35 AM 46.4 °F 46.4 °F 100% 30.06 in 10.0 mi Calm Calm - N/A   Clear
6:55 AM 46.4 °F 46.4 °F 100% 30.06 in 10.0 mi Calm Calm - N/A   Clear
7:15 AM 46.4 °F 46.4 °F 100% 30.05 in 9.0 mi Calm Calm - N/A   Clear
7:35 AM 46.4 °F 46.4 °F 100% 30.05 in 9.0 mi Calm Calm - N/A   Clear
7:55 AM 48.2 °F 48.2 °F 100% 30.04 in 10.0 mi Calm Calm - N/A   Clear
8:15 AM 50.0 °F 48.2 °F 94% 30.04 in 10.0 mi Calm Calm - N/A   Clear
8:35 AM 53.6 °F 50.0 °F 88% 30.04 in 10.0 mi Calm Calm - N/A   Clear
8:55 AM 57.2 °F 51.8 °F 82% 30.04 in 10.0 mi Calm Calm - N/A   Clear
9:15 AM 59.0 °F 51.8 °F 77% 30.04 in - Calm Calm - N/A   Clear
9:35 AM 64.4 °F 55.4 °F 73% 30.03 in 10.0 mi SW 8.1 mph - N/A   Clear
9:55 AM 64.4 °F 57.2 °F 77% 30.04 in 10.0 mi WSW 5.8 mph 11.5 mph N/A   Clear
10:15 AM 68.0 °F 57.2 °F 68% 30.03 in 10.0 mi WSW 6.9 mph 13.8 mph N/A   Clear
10:35 AM 69.8 °F 57.2 °F 64% 30.02 in 10.0 mi SW 9.2 mph - N/A   Clear
10:55 AM 73.4 °F 57.2 °F 57% 30.01 in 10.0 mi WSW 8.1 mph 18.4 mph N/A   Clear
11:15 AM 75.2 °F 53.6 °F 47% 30.00 in 10.0 mi SW 12.7 mph 19.6 mph N/A   Clear
11:35 AM 75.2 °F 48.2 °F 38% 29.99 in 10.0 mi West 11.5 mph 17.3 mph N/A   Partly Cloudy
11:55 AM 75.2 °F 46.4 °F 36% 29.99 in 10.0 mi West 15.0 mph 24.2 mph N/A   Clear
12:15 PM 73.4 °F 42.8 °F 33% 29.98 in 10.0 mi WNW 13.8 mph 24.2 mph N/A   Clear
12:35 PM 75.2 °F 35.6 °F 24% 29.97 in 10.0 mi West 17.3 mph 26.5 mph N/A   Clear
12:55 PM 75.2 °F 39.2 °F 27% 29.96 in 10.0 mi West 13.8 mph 23.0 mph N/A   Clear
1:15 PM 75.2 °F 39.2 °F 27% 29.96 in 10.0 mi WNW 13.8 mph 20.7 mph N/A   Clear
1:35 PM 73.4 °F 41.0 °F 31% 29.95 in 10.0 mi WNW 15.0 mph 21.9 mph N/A   Clear
1:55 PM 75.2 °F 46.4 °F 36% 29.94 in 10.0 mi WNW 12.7 mph - N/A   Clear
2:15 PM 73.4 °F 46.4 °F 38% 29.93 in 10.0 mi WSW 12.7 mph - N/A   Clear
2:35 PM 73.4 °F 48.2 °F 41% 29.93 in 10.0 mi WNW 12.7 mph - N/A   Clear
2:55 PM 75.2 °F 50.0 °F 41% 29.92 in 10.0 mi West 9.2 mph 16.1 mph N/A   Clear
3:15 PM 75.2 °F 48.2 °F 38% 29.92 in 10.0 mi WNW 15.0 mph - N/A   Clear
3:35 PM 75.2 °F 50.0 °F 41% 29.91 in 10.0 mi WNW 9.2 mph - N/A   Clear
3:55 PM 75.2 °F 50.0 °F 41% 29.90 in 10.0 mi West 6.9 mph 13.8 mph N/A   Clear
4:15 PM 75.2 °F 51.8 °F 44% 29.90 in 10.0 mi West 12.7 mph - N/A   Clear
4:35 PM 75.2 °F 51.8 °F 44% 29.90 in 10.0 mi WSW 8.1 mph 16.1 mph N/A   Clear
4:55 PM 75.2 °F 51.8 °F 44% 29.90 in 10.0 mi WSW 8.1 mph - N/A   Clear
5:15 PM 75.2 °F 51.8 °F 44% 29.90 in 10.0 mi West 9.2 mph 16.1 mph N/A   Clear
5:35 PM 73.4 °F 51.8 °F 47% 29.90 in 10.0 mi WSW 5.8 mph - N/A   Clear
5:55 PM 71.6 °F 51.8 °F 50% 29.90 in 10.0 mi West 6.9 mph - N/A   Clear
6:15 PM 71.6 °F 51.8 °F 50% 29.91 in 10.0 mi West 3.5 mph - N/A   Clear
6:35 PM 68.0 °F 51.8 °F 56% 29.91 in 10.0 mi Calm Calm - N/A   Clear
6:55 PM 64.4 °F 51.8 °F 64% 29.92 in 10.0 mi Calm Calm - N/A   Clear
7:15 PM 62.6 °F 51.8 °F 68% 29.92 in 10.0 mi Calm Calm - N/A   Clear
7:35 PM 59.0 °F 53.6 °F 82% 29.92 in 10.0 mi Calm Calm - N/A   Clear
7:55 PM 59.0 °F 53.6 °F 82% 29.92 in 10.0 mi Calm Calm - N/A   Clear
8:15 PM 55.4 °F 51.8 °F 88% 29.93 in 10.0 mi Calm Calm - N/A   Clear
8:35 PM 55.4 °F 51.8 °F 88% 29.93 in 10.0 mi Calm Calm - N/A   Clear
8:55 PM 55.4 °F 51.8 °F 88% 29.93 in 10.0 mi Calm Calm - N/A   Clear
9:15 PM 53.6 °F 51.8 °F 94% 29.94 in 10.0 mi Calm Calm - N/A   Clear
9:35 PM 55.4 °F 51.8 °F 88% 29.95 in 10.0 mi Calm Calm - N/A   Mostly Cloudy
9:55 PM 55.4 °F 53.6 °F 94% 29.95 in 10.0 mi Calm Calm - N/A   Mostly Cloudy
10:15 PM 55.4 °F 53.6 °F 94% 29.95 in 10.0 mi Calm Calm - N/A   Mostly Cloudy
10:35 PM 57.2 °F 53.6 °F 88% 29.94 in 10.0 mi Calm Calm - N/A   Overcast
10:55 PM 55.4 °F 53.6 °F 94% 29.94 in 10.0 mi Calm Calm - N/A   Mostly Cloudy
11:15 PM 57.2 °F 53.6 °F 88% 29.94 in 10.0 mi Calm Calm - N/A   Mostly Cloudy
11:35 PM 55.4 °F 53.6 °F 94% 29.93 in 10.0 mi Calm Calm - N/A   Overcast
11:55 PM 55.4 °F 51.8 °F 88% 29.93 in 10.0 mi NNE 4.6 mph - N/A   Mostly Cloudy